Time;durP1;ratioP1;P1;durP2;ratioP2;P2;SDS_P1;SDS_P2;PMS_P1;PMS_P2;Temp;Humidity;BMP_temperature;BMP_pressure;BME280_temperature;BME280_humidity;BME280_pressure;Samples;Min_cycle;Max_cycle;Signal;HPM_P1;HPM_P2
2023/06/15 00:02:18;;;;;;;2.55;2.10;;;18.70;50.40;;;;;;942207;150;27335;-72
2023/06/15 00:04:45;;;;;;;2.10;2.00;;;18.70;50.40;;;;;;905669;154;27549;-73
2023/06/15 00:07:11;;;;;;;1.75;1.62;;;18.70;50.50;;;;;;938874;151;27357;-72
2023/06/15 00:09:38;;;;;;;2.98;2.50;;;18.70;50.50;;;;;;918686;153;27463;-73
2023/06/15 00:12:04;;;;;;;2.95;2.10;;;18.70;49.80;;;;;;937352;150;27296;-73
2023/06/15 00:14:31;;;;;;;2.37;2.17;;;18.60;50.60;;;;;;936775;151;27422;-72
2023/06/15 00:16:58;;;;;;;2.40;2.20;;;18.60;50.70;;;;;;935941;151;27404;-73
2023/06/15 00:19:26;;;;;;;2.25;2.10;;;18.50;50.80;;;;;;920098;153;27343;-72
2023/06/15 00:21:53;;;;;;;1.90;1.80;;;18.50;51.00;;;;;;935688;151;27294;-72
2023/06/15 00:24:17;;;;;;;2.20;2.00;;;18.40;51.10;;;;;;936110;150;27414;-73
2023/06/15 00:26:44;;;;;;;2.77;2.15;;;18.30;51.10;;;;;;937282;151;27382;-72
2023/06/15 00:29:11;;;;;;;2.87;2.05;;;18.20;51.30;;;;;;935346;150;27546;-73
2023/06/15 00:31:37;;;;;;;2.30;2.20;;;18.10;51.40;;;;;;933458;151;27325;-73
2023/06/15 00:34:04;;;;;;;2.20;2.10;;;18.00;51.70;;;;;;935539;151;27446;-72
2023/06/15 00:36:30;;;;;;;2.27;2.17;;;17.90;51.80;;;;;;937040;151;27859;-73
2023/06/15 00:38:57;;;;;;;2.20;2.10;;;17.90;52.10;;;;;;937694;151;27388;-72
2023/06/15 00:41:23;;;;;;;2.30;2.10;;;17.80;52.10;;;;;;934209;151;27360;-72
2023/06/15 00:43:50;;;;;;;2.42;2.22;;;17.70;52.30;;;;;;919429;153;27370;-72
2023/06/15 00:46:17;;;;;;;2.17;2.07;;;17.50;52.50;;;;;;934641;151;27442;-73
2023/06/15 00:48:43;;;;;;;2.33;2.12;;;17.50;52.80;;;;;;935163;150;27449;-73
2023/06/15 00:51:10;;;;;;;3.45;1.98;;;17.40;53.00;;;;;;936063;151;27380;-72
2023/06/15 00:53:37;;;;;;;2.60;2.40;;;17.40;53.20;;;;;;918069;153;27466;-72
2023/06/15 00:56:03;;;;;;;2.40;2.30;;;17.30;53.30;;;;;;914129;154;27387;-72
2023/06/15 00:58:30;;;;;;;2.43;2.30;;;17.30;53.40;;;;;;920150;153;27352;-72
2023/06/15 01:00:56;;;;;;;2.53;2.40;;;17.20;53.60;;;;;;923943;153;27388;-72
2023/06/15 01:03:23;;;;;;;2.90;2.70;;;17.10;53.60;;;;;;925022;153;27375;-72
2023/06/15 01:05:53;;;;;;;3.30;2.50;;;17.00;54.40;;;;;;914372;154;27440;-72
2023/06/15 01:08:20;;;;;;;2.50;2.30;;;16.90;53.90;;;;;;925870;151;27335;-72
2023/06/15 01:10:45;;;;;;;2.50;2.40;;;16.80;54.20;;;;;;903388;155;27404;-73
2023/06/15 01:13:12;;;;;;;2.73;2.53;;;16.70;54.30;;;;;;922202;152;27432;-72
2023/06/15 01:15:39;;;;;;;2.17;2.07;;;16.60;54.50;;;;;;917499;153;27436;-72
2023/06/15 01:18:05;;;;;;;3.10;2.30;;;16.50;54.80;;;;;;916092;154;27367;-72
2023/06/15 01:20:32;;;;;;;3.10;2.43;;;16.50;55.00;;;;;;906441;155;27354;-72
2023/06/15 01:23:01;;;;;;;2.63;2.27;;;16.40;55.00;;;;;;889696;155;27407;-72
2023/06/15 01:25:53;;;;;;;2.47;2.27;;;16.30;55.20;;;;;;903596;156;27468;-72
2023/06/15 01:28:20;;;;;;;2.60;2.40;;;16.30;55.40;;;;;;916609;153;27483;-72
2023/06/15 01:30:44;;;;;;;2.60;2.37;;;16.20;55.30;;;;;;916631;153;27473;-73
2023/06/15 01:33:11;;;;;;;4.23;2.40;;;16.10;55.50;;;;;;906050;155;27459;-72
2023/06/15 01:35:37;;;;;;;2.33;2.20;;;16.00;55.80;;;;;;904770;156;27337;-73
2023/06/15 01:38:04;;;;;;;2.73;2.53;;;16.00;56.00;;;;;;900149;155;27334;-72
2023/06/15 01:40:31;;;;;;;2.37;2.23;;;15.90;56.30;;;;;;897851;155;27448;-72
2023/06/15 01:42:57;;;;;;;2.47;2.27;;;15.90;56.60;;;;;;897076;155;27464;-72
2023/06/15 01:45:24;;;;;;;2.90;2.30;;;15.90;56.70;;;;;;901028;155;27325;-72
2023/06/15 01:47:50;;;;;;;2.47;2.23;;;15.90;56.90;;;;;;898630;155;27305;-72
2023/06/15 01:50:17;;;;;;;2.70;2.50;;;15.90;57.10;;;;;;905928;153;27386;-72
2023/06/15 01:52:44;;;;;;;2.57;2.37;;;15.90;57.30;;;;;;922379;152;27377;-72
2023/06/15 01:55:10;;;;;;;2.50;2.30;;;15.90;57.30;;;;;;924330;152;27293;-73
2023/06/15 01:57:37;;;;;;;2.60;2.40;;;15.90;57.50;;;;;;921873;152;27403;-73
2023/06/15 02:00:03;;;;;;;2.60;2.40;;;15.90;57.60;;;;;;922797;152;27408;-72
2023/06/15 02:02:30;;;;;;;2.57;2.37;;;15.90;57.60;;;;;;920135;152;27472;-73
2023/06/15 02:04:56;;;;;;;2.77;2.57;;;15.80;57.50;;;;;;923602;152;27430;-72
2023/06/15 02:07:23;;;;;;;2.70;2.50;;;15.80;57.70;;;;;;907698;155;27416;-72
2023/06/15 02:09:50;;;;;;;2.70;2.50;;;15.80;57.80;;;;;;916706;154;27453;-73
2023/06/15 02:12:16;;;;;;;2.63;2.43;;;15.80;58.00;;;;;;914444;153;27394;-73
2023/06/15 02:14:43;;;;;;;2.50;2.40;;;15.70;58.00;;;;;;921910;152;27833;-73
2023/06/15 02:17:10;;;;;;;2.77;2.57;;;15.70;57.90;;;;;;907186;155;27361;-73
2023/06/15 02:19:36;;;;;;;2.77;2.50;;;15.70;58.20;;;;;;902505;156;27716;-73
2023/06/15 02:22:03;;;;;;;2.60;2.40;;;15.70;58.30;;;;;;892211;156;27339;-72
2023/06/15 02:24:29;;;;;;;2.63;2.40;;;15.60;58.40;;;;;;922153;152;27390;-73
2023/06/15 02:26:56;;;;;;;2.67;2.47;;;15.60;58.50;;;;;;923442;152;27269;-72
2023/06/15 02:29:22;;;;;;;3.77;2.43;;;15.60;58.60;;;;;;922632;152;27394;-72
2023/06/15 02:31:49;;;;;;;3.03;2.20;;;15.60;58.60;;;;;;923642;152;27305;-72
2023/06/15 02:34:16;;;;;;;3.60;2.50;;;15.60;58.90;;;;;;922456;152;27430;-73
2023/06/15 02:36:43;;;;;;;2.47;2.27;;;15.60;58.90;;;;;;923139;152;27463;-72
2023/06/15 02:39:10;;;;;;;2.60;2.40;;;15.60;58.90;;;;;;921602;152;27300;-73
2023/06/15 02:41:35;;;;;;;2.70;2.40;;;15.60;59.10;;;;;;922926;152;27342;-74
2023/06/15 02:44:03;;;;;;;2.50;2.33;;;15.50;59.00;;;;;;922542;152;27289;-74
2023/06/15 02:46:28;;;;;;;2.83;2.40;;;15.50;59.00;;;;;;917677;154;27500;-74
2023/06/15 02:48:56;;;;;;;2.70;2.50;;;15.50;59.10;;;;;;917034;154;27494;-74
2023/06/15 02:51:22;;;;;;;3.07;2.87;;;15.40;59.30;;;;;;915843;154;27361;-74
2023/06/15 02:53:48;;;;;;;2.70;2.50;;;15.40;59.50;;;;;;917483;154;27331;-74
2023/06/15 02:56:20;;;;;;;2.87;2.67;;;15.40;59.70;;;;;;917356;153;27389;-74
2023/06/15 02:58:54;;;;;;;3.53;2.30;;;15.30;59.70;;;;;;921121;152;27345;-74
2023/06/15 03:01:16;;;;;;;2.90;2.70;;;15.40;60.00;;;;;;902656;155;27701;-74
2023/06/15 03:03:43;;;;;;;2.73;2.20;;;15.30;59.90;;;;;;893083;155;27331;-74
2023/06/15 03:06:09;;;;;;;2.60;2.37;;;15.40;60.10;;;;;;888916;155;27809;-74
2023/06/15 03:08:36;;;;;;;2.37;2.20;;;15.40;60.10;;;;;;891526;155;27385;-74
2023/06/15 03:11:02;;;;;;;2.67;2.43;;;15.40;60.40;;;;;;891422;155;27409;-74
2023/06/15 03:13:32;;;;;;;2.43;2.23;;;15.40;60.30;;;;;;890911;155;27373;-74
2023/06/15 03:16:07;;;;;;;2.57;2.37;;;15.50;60.40;;;;;;888362;155;27504;-74
2023/06/15 03:18:30;;;;;;;2.50;2.30;;;15.50;60.30;;;;;;907241;155;27362;-74
2023/06/15 03:20:57;;;;;;;2.57;2.37;;;15.50;60.40;;;;;;907391;155;27407;-74
2023/06/15 03:23:24;;;;;;;3.07;2.40;;;15.50;60.20;;;;;;923063;152;27473;-74
2023/06/15 03:25:51;;;;;;;2.80;2.47;;;15.50;60.50;;;;;;902489;155;27471;-74
2023/06/15 03:28:17;;;;;;;2.60;2.40;;;15.60;60.50;;;;;;915849;153;27415;-74
2023/06/15 03:30:46;;;;;;;3.27;2.50;;;15.60;60.40;;;;;;918475;153;27503;-74
2023/06/15 03:33:10;;;;;;;2.77;2.57;;;15.60;60.40;;;;;;915584;154;27531;-74
2023/06/15 03:35:36;;;;;;;2.90;2.70;;;15.60;60.40;;;;;;891049;155;27438;-74
2023/06/15 03:38:03;;;;;;;2.90;2.70;;;15.70;60.70;;;;;;891322;155;27412;-74
2023/06/15 03:40:30;;;;;;;4.73;2.60;;;15.70;60.70;;;;;;892396;155;27462;-74
2023/06/15 03:42:56;;;;;;;2.90;2.70;;;15.70;60.90;;;;;;890778;155;27365;-74
2023/06/15 03:45:23;;;;;;;2.67;2.47;;;15.70;60.70;;;;;;891333;155;27411;-74
2023/06/15 03:47:49;;;;;;;3.03;2.73;;;15.80;61.00;;;;;;892221;155;27845;-74
2023/06/15 03:50:16;;;;;;;2.87;2.63;;;15.80;61.00;;;;;;889323;155;27411;-74
2023/06/15 03:52:42;;;;;;;2.57;2.37;;;15.80;61.00;;;;;;915526;154;27456;-74
2023/06/15 03:55:09;;;;;;;3.93;2.33;;;15.80;61.20;;;;;;917885;154;27433;-76
2023/06/15 03:57:36;;;;;;;2.93;2.67;;;15.80;61.10;;;;;;919043;154;27435;-76
2023/06/15 04:00:04;;;;;;;2.60;2.40;;;15.80;61.20;;;;;;892347;155;27541;-76
2023/06/15 04:02:29;;;;;;;3.50;2.50;;;15.90;61.20;;;;;;889753;155;27389;-76
2023/06/15 04:04:56;;;;;;;2.60;2.40;;;15.90;61.30;;;;;;891295;155;27419;-77
2023/06/15 04:07:22;;;;;;;3.37;2.80;;;15.90;61.40;;;;;;919377;153;27369;-77
2023/06/15 04:09:49;;;;;;;2.83;2.23;;;16.00;61.50;;;;;;922008;152;27401;-75
2023/06/15 04:12:15;;;;;;;4.33;2.40;;;16.00;61.40;;;;;;906510;155;27324;-75
2023/06/15 04:14:42;;;;;;;2.52;2.37;;;16.00;61.70;;;;;;891641;155;27468;-75
2023/06/15 04:17:08;;;;;;;2.57;2.40;;;16.10;61.70;;;;;;918090;154;27421;-75
2023/06/15 04:19:35;;;;;;;2.67;2.40;;;16.10;61.70;;;;;;918148;154;27521;-75
2023/06/15 04:22:01;;;;;;;2.40;2.20;;;16.20;61.80;;;;;;915279;154;27491;-75
2023/06/15 04:24:28;;;;;;;2.70;2.50;;;16.20;61.70;;;;;;917212;154;27392;-75
2023/06/15 04:26:57;;;;;;;2.70;2.50;;;16.30;61.70;;;;;;919044;153;27366;-75
2023/06/15 04:29:22;;;;;;;2.52;2.33;;;16.40;61.70;;;;;;919514;151;27527;-75
2023/06/15 04:31:54;;;;;;;4.47;2.90;;;16.50;61.70;;;;;;917352;154;27382;-74
2023/06/15 04:34:15;;;;;;;2.60;2.37;;;16.50;61.70;;;;;;915269;154;27481;-75
2023/06/15 04:36:41;;;;;;;2.80;2.60;;;16.60;61.70;;;;;;916774;154;27346;-75
2023/06/15 04:39:08;;;;;;;2.73;2.40;;;16.70;61.70;;;;;;915289;154;27439;-75
2023/06/15 04:41:35;;;;;;;2.80;2.60;;;16.80;61.60;;;;;;918143;154;27410;-75
2023/06/15 04:44:01;;;;;;;2.60;2.40;;;16.90;61.60;;;;;;919491;154;27510;-75
2023/06/15 04:46:27;;;;;;;2.83;2.63;;;17.00;61.60;;;;;;917882;154;27398;-75
2023/06/15 04:48:56;;;;;;;2.72;2.52;;;17.10;61.50;;;;;;922627;151;27262;-75
2023/06/15 04:51:20;;;;;;;3.75;2.70;;;17.20;61.40;;;;;;890914;155;27491;-75
2023/06/15 04:53:47;;;;;;;3.08;2.77;;;17.30;61.40;;;;;;891814;155;27402;-75
2023/06/15 04:56:14;;;;;;;2.45;2.27;;;17.50;61.40;;;;;;890394;155;27508;-75
2023/06/15 04:58:40;;;;;;;2.10;2.00;;;17.60;61.70;;;;;;890558;155;27470;-75
2023/06/15 05:01:07;;;;;;;2.70;2.52;;;17.90;62.20;;;;;;891506;155;27494;-75
2023/06/15 05:03:34;;;;;;;2.20;2.00;;;18.30;63.20;;;;;;890428;155;27395;-75
2023/06/15 05:06:00;;;;;;;2.40;2.20;;;18.90;63.80;;;;;;892829;155;27407;-75
2023/06/15 05:08:27;;;;;;;2.45;2.25;;;19.60;64.00;;;;;;908035;153;27418;-75
2023/06/15 05:10:53;;;;;;;2.52;2.25;;;20.40;63.50;;;;;;922099;152;27426;-75
2023/06/15 05:13:20;;;;;;;2.80;2.20;;;21.20;62.80;;;;;;916086;154;27400;-76
2023/06/15 05:15:46;;;;;;;2.17;2.00;;;22.10;61.80;;;;;;918094;154;27392;-75
2023/06/15 05:18:13;;;;;;;2.47;2.12;;;23.00;60.60;;;;;;915826;153;27360;-75
2023/06/15 05:20:40;;;;;;;2.17;2.08;;;23.90;59.60;;;;;;918194;154;27436;-75
2023/06/15 05:23:07;;;;;;;1.92;1.72;;;24.80;58.60;;;;;;918594;154;27489;-75
2023/06/15 05:25:33;;;;;;;2.00;1.90;;;25.70;57.50;;;;;;919928;154;27455;-75
2023/06/15 05:27:59;;;;;;;2.85;2.20;;;26.50;56.20;;;;;;916326;154;27443;-75
2023/06/15 05:30:26;;;;;;;2.10;1.90;;;27.30;55.00;;;;;;922496;152;27352;-75
2023/06/15 05:32:52;;;;;;;2.12;1.92;;;28.10;53.90;;;;;;889683;155;27348;-74
2023/06/15 05:35:19;;;;;;;3.37;1.85;;;28.70;52.70;;;;;;891153;155;27480;-75
2023/06/15 05:37:46;;;;;;;5.92;2.00;;;29.30;51.50;;;;;;890195;155;27421;-75
2023/06/15 05:40:12;;;;;;;1.87;1.77;;;29.90;50.70;;;;;;891199;155;27318;-75
2023/06/15 05:42:39;;;;;;;2.02;1.92;;;30.40;49.70;;;;;;891401;155;27366;-75
2023/06/15 05:45:06;;;;;;;2.10;2.00;;;30.90;48.80;;;;;;890309;155;27360;-75
2023/06/15 05:47:32;;;;;;;1.98;1.87;;;31.40;48.00;;;;;;891631;155;27740;-75
2023/06/15 05:49:59;;;;;;;2.30;2.02;;;31.90;47.40;;;;;;889609;155;27423;-75
2023/06/15 05:52:25;;;;;;;2.37;2.00;;;32.30;46.80;;;;;;890861;155;27376;-75
2023/06/15 05:54:52;;;;;;;2.20;2.00;;;32.80;46.00;;;;;;892080;155;27331;-75
2023/06/15 05:57:19;;;;;;;1.80;1.70;;;33.20;45.60;;;;;;890648;155;26347;-75
2023/06/15 05:59:48;;;;;;;2.10;2.00;;;33.60;44.90;;;;;;890537;155;27516;-75
2023/06/15 06:02:15;;;;;;;1.77;1.67;;;34.10;44.30;;;;;;889577;155;27418;-75
2023/06/15 06:04:41;;;;;;;2.05;1.85;;;34.60;43.70;;;;;;890313;155;26354;-75
2023/06/15 06:07:08;;;;;;;3.02;1.90;;;35.00;42.90;;;;;;889613;155;26286;-75
2023/06/15 06:09:34;;;;;;;4.22;1.98;;;35.50;42.30;;;;;;897024;154;26371;-75
2023/06/15 06:12:01;;;;;;;2.40;1.70;;;35.90;41.50;;;;;;904533;154;26261;-75
2023/06/15 06:14:27;;;;;;;1.60;1.50;;;36.30;41.10;;;;;;934417;151;26242;-76
2023/06/15 06:16:54;;;;;;;1.45;1.45;;;36.60;40.70;;;;;;933879;151;26217;-76
2023/06/15 06:19:21;;;;;;;2.35;1.62;;;37.00;40.40;;;;;;921875;153;26335;-76
2023/06/15 06:21:47;;;;;;;2.33;1.98;;;37.40;39.50;;;;;;936796;151;26256;-76
2023/06/15 06:24:14;;;;;;;2.35;1.62;;;37.80;38.90;;;;;;936113;151;26312;-76
2023/06/15 06:26:40;;;;;;;1.82;1.40;;;38.10;38.60;;;;;;936206;151;26255;-76
2023/06/15 06:29:07;;;;;;;1.55;1.45;;;38.50;37.90;;;;;;935652;148;26482;-73
2023/06/15 06:31:33;;;;;;;2.47;2.20;;;38.80;37.30;;;;;;936818;150;26710;-73
2023/06/15 06:34:00;;;;;;;1.50;1.40;;;39.00;36.60;;;;;;936834;150;26345;-73
2023/06/15 06:36:27;;;;;;;1.70;1.60;;;39.30;36.30;;;;;;904596;155;26335;-73
2023/06/15 06:38:53;;;;;;;1.95;1.85;;;39.50;36.00;;;;;;915311;153;26272;-73
2023/06/15 06:41:20;;;;;;;3.83;1.72;;;39.80;35.50;;;;;;918898;153;26314;-73
2023/06/15 06:43:46;;;;;;;3.62;1.75;;;40.10;35.10;;;;;;935517;151;26296;-73
2023/06/15 06:46:14;;;;;;;4.70;1.70;;;40.40;34.60;;;;;;935033;151;26330;-73
2023/06/15 06:48:40;;;;;;;1.70;1.27;;;40.70;34.20;;;;;;934557;151;26260;-73
2023/06/15 06:51:06;;;;;;;1.75;1.65;;;40.90;33.70;;;;;;935038;151;26373;-73
2023/06/15 06:53:33;;;;;;;1.62;1.52;;;41.20;33.40;;;;;;922124;151;26667;-73
2023/06/15 06:56:00;;;;;;;2.98;1.85;;;41.40;33.10;;;;;;934897;151;26365;-73
2023/06/15 06:58:27;;;;;;;2.27;1.75;;;41.50;32.50;;;;;;920145;153;26328;-73
2023/06/15 07:00:53;;;;;;;1.77;1.67;;;41.70;31.90;;;;;;937730;151;26280;-73
2023/06/15 07:03:20;;;;;;;1.70;1.60;;;41.80;31.60;;;;;;940466;150;26292;-73
2023/06/15 07:05:47;;;;;;;2.70;1.70;;;41.80;31.30;;;;;;927109;152;26406;-73
2023/06/15 07:08:12;;;;;;;1.50;1.42;;;41.90;31.20;;;;;;937422;151;26349;-73
2023/06/15 07:10:39;;;;;;;1.70;1.60;;;42.00;31.10;;;;;;935020;151;26216;-73
2023/06/15 07:13:06;;;;;;;1.80;1.70;;;42.20;30.90;;;;;;907805;155;26318;-73
2023/06/15 07:15:32;;;;;;;2.15;1.80;;;42.50;30.80;;;;;;912760;155;26291;-73
2023/06/15 07:17:59;;;;;;;2.10;1.90;;;42.60;30.40;;;;;;912283;155;26224;-73
2023/06/15 07:20:25;;;;;;;2.62;1.65;;;42.90;30.10;;;;;;923366;152;26229;-73
2023/06/15 07:22:52;;;;;;;2.70;1.80;;;43.10;29.50;;;;;;917611;153;26394;-73
2023/06/15 07:25:18;;;;;;;1.67;1.57;;;43.20;29.40;;;;;;916977;153;26702;-73
2023/06/15 07:27:45;;;;;;;1.57;1.47;;;43.30;29.40;;;;;;916268;154;26304;-73
2023/06/15 07:30:12;;;;;;;1.70;1.60;;;43.50;29.40;;;;;;916436;153;26266;-73
2023/06/15 07:32:39;;;;;;;1.40;1.30;;;43.80;29.20;;;;;;918754;154;26289;-73
2023/06/15 07:35:05;;;;;;;1.87;1.60;;;44.00;28.90;;;;;;918111;154;26273;-73
2023/06/15 07:37:32;;;;;;;1.60;1.50;;;44.20;28.70;;;;;;922242;152;26312;-73
2023/06/15 07:39:58;;;;;;;1.52;1.42;;;44.50;28.50;;;;;;892413;155;26275;-73
2023/06/15 07:42:25;;;;;;;2.70;1.75;;;44.70;28.40;;;;;;890886;155;26264;-73
2023/06/15 07:44:52;;;;;;;1.82;1.42;;;44.90;28.00;;;;;;890418;155;26276;-73
2023/06/15 07:47:18;;;;;;;1.70;1.60;;;45.20;27.70;;;;;;890718;155;26405;-73
2023/06/15 07:49:45;;;;;;;1.30;1.30;;;45.40;27.50;;;;;;891190;155;26299;-73
2023/06/15 07:52:11;;;;;;;1.60;1.50;;;45.50;27.30;;;;;;893228;155;26362;-73
2023/06/15 07:54:38;;;;;;;1.72;1.60;;;45.70;27.40;;;;;;918870;153;26265;-73
2023/06/15 07:57:04;;;;;;;2.27;1.70;;;45.80;27.10;;;;;;916176;154;26329;-73
2023/06/15 07:59:31;;;;;;;1.62;1.52;;;46.10;27.00;;;;;;917575;154;26296;-73
2023/06/15 08:01:58;;;;;;;1.55;1.45;;;46.30;26.70;;;;;;918029;153;26351;-71
2023/06/15 08:04:24;;;;;;;1.40;1.30;;;46.50;26.60;;;;;;917297;154;26269;-71
2023/06/15 08:06:51;;;;;;;1.27;1.27;;;46.70;26.30;;;;;;918603;154;26374;-71
2023/06/15 08:09:17;;;;;;;1.47;1.32;;;46.90;25.50;;;;;;891167;155;26288;-71
2023/06/15 08:11:44;;;;;;;1.75;1.47;;;47.10;25.90;;;;;;890802;155;26437;-71
2023/06/15 08:14:11;;;;;;;1.25;1.15;;;47.30;25.80;;;;;;892333;155;26291;-71
2023/06/15 08:16:37;;;;;;;1.55;1.45;;;47.40;25.50;;;;;;890477;155;26267;-71
2023/06/15 08:19:04;;;;;;;1.55;1.42;;;47.60;25.40;;;;;;917137;154;26278;-71
2023/06/15 08:21:32;;;;;;;1.85;1.47;;;47.80;25.20;;;;;;917193;154;26402;-71
2023/06/15 08:23:57;;;;;;;1.70;1.60;;;47.90;25.00;;;;;;918471;153;26257;-71
2023/06/15 08:26:24;;;;;;;1.30;1.20;;;48.00;24.60;;;;;;916767;153;26302;-71
2023/06/15 08:28:50;;;;;;;2.02;1.27;;;48.10;24.50;;;;;;918237;153;26369;-74
2023/06/15 08:31:17;;;;;;;1.90;1.80;;;48.10;24.30;;;;;;915811;154;26336;-74
2023/06/15 08:33:43;;;;;;;1.65;1.52;;;48.20;24.00;;;;;;919306;154;26349;-75
2023/06/15 08:36:11;;;;;;;1.60;1.50;;;48.10;23.80;;;;;;914762;154;26211;-75
2023/06/15 08:38:36;;;;;;;2.10;1.40;;;48.10;23.60;;;;;;917577;154;26269;-75
2023/06/15 08:41:03;;;;;;;1.55;1.45;;;48.00;23.60;;;;;;921302;152;26396;-75
2023/06/15 08:43:30;;;;;;;1.50;1.40;;;48.00;23.60;;;;;;919387;153;26658;-75
2023/06/15 08:45:57;;;;;;;1.30;1.30;;;48.10;23.50;;;;;;922657;152;26198;-75
2023/06/15 08:48:23;;;;;;;1.50;1.40;;;48.20;23.40;;;;;;921433;152;26304;-75
2023/06/15 08:50:49;;;;;;;2.83;1.67;;;48.20;23.00;;;;;;891329;155;26248;-75
2023/06/15 08:53:16;;;;;;;1.80;1.70;;;48.10;22.90;;;;;;917138;153;26406;-75
2023/06/15 08:55:43;;;;;;;3.35;1.57;;;48.00;22.90;;;;;;916655;154;26386;-76
2023/06/15 08:58:10;;;;;;;1.35;1.35;;;47.90;23.10;;;;;;916384;154;26281;-75
2023/06/15 09:00:36;;;;;;;1.57;1.47;;;47.90;23.00;;;;;;918215;154;26245;-75
2023/06/15 09:03:02;;;;;;;1.75;1.65;;;47.90;22.70;;;;;;918003;154;26342;-75
2023/06/15 09:05:29;;;;;;;1.70;1.60;;;47.90;22.30;;;;;;919246;154;26402;-76
2023/06/15 09:07:58;;;;;;;1.65;1.55;;;47.70;21.60;;;;;;915433;154;26361;-76
2023/06/15 09:10:22;;;;;;;6.20;2.08;;;47.30;22.00;;;;;;922453;151;26374;-76
2023/06/15 09:12:49;;;;;;;1.75;1.65;;;46.80;22.20;;;;;;923226;151;26405;-76
2023/06/15 09:15:21;;;;;;;2.47;1.60;;;46.40;22.30;;;;;;915009;155;26390;-76
2023/06/15 09:17:51;;;;;;;3.42;1.80;;;46.10;22.50;;;;;;924571;152;26290;-74
2023/06/15 09:20:17;;;;;;;1.80;1.70;;;45.80;22.60;;;;;;923529;152;26338;-73
2023/06/15 09:22:45;;;;;;;2.52;1.90;;;45.50;22.50;;;;;;922581;153;26230;-73
2023/06/15 09:25:13;;;;;;;1.50;1.40;;;45.30;22.70;;;;;;912678;154;26395;-73
2023/06/15 09:27:40;;;;;;;1.98;1.75;;;45.10;23.00;;;;;;925859;152;26333;-73
2023/06/15 09:30:07;;;;;;;1.90;1.80;;;45.00;22.90;;;;;;924271;152;26714;-73
2023/06/15 09:32:33;;;;;;;2.37;1.80;;;44.80;22.80;;;;;;925303;152;26299;-75
2023/06/15 09:35:00;;;;;;;1.67;1.57;;;44.60;23.10;;;;;;926163;152;26367;-75
2023/06/15 09:37:27;;;;;;;1.60;1.50;;;44.50;23.00;;;;;;912923;154;26328;-73
2023/06/15 09:39:53;;;;;;;1.57;1.47;;;44.50;23.10;;;;;;913700;154;26395;-73
2023/06/15 09:42:26;;;;;;;2.00;1.80;;;44.40;23.20;;;;;;924424;152;26281;-75
2023/06/15 09:44:58;;;;;;;3.65;1.60;;;44.50;23.40;;;;;;894092;155;26435;-75
2023/06/15 09:47:24;;;;;;;2.27;1.80;;;44.40;23.10;;;;;;910092;154;26460;-75
2023/06/15 09:49:51;;;;;;;1.90;1.80;;;44.40;22.90;;;;;;924850;151;26346;-75
2023/06/15 09:52:18;;;;;;;1.72;1.62;;;44.20;22.90;;;;;;913708;154;26367;-73
2023/06/15 09:54:44;;;;;;;1.75;1.65;;;43.90;23.10;;;;;;913430;154;26276;-75
2023/06/15 09:57:11;;;;;;;3.33;2.10;;;43.60;22.80;;;;;;915860;154;26297;-75
2023/06/15 09:59:37;;;;;;;1.98;1.67;;;43.10;22.90;;;;;;912966;154;26329;-75
2023/06/15 10:02:04;;;;;;;1.77;1.62;;;42.60;23.00;;;;;;914728;154;26266;-75
2023/06/15 10:04:31;;;;;;;3.72;1.90;;;42.20;23.40;;;;;;912484;154;26305;-75
2023/06/15 10:07:03;;;;;;;2.25;1.87;;;41.70;23.40;;;;;;913181;154;26319;-75
2023/06/15 10:09:30;;;;;;;2.33;1.50;;;41.20;23.30;;;;;;913950;154;26306;-75
2023/06/15 10:11:56;;;;;;;1.70;1.60;;;40.70;23.60;;;;;;925115;152;27380;-75
2023/06/15 10:14:33;;;;;;;2.33;2.12;;;40.20;23.70;;;;;;906734;155;26307;-75
2023/06/15 10:16:58;;;;;;;1.65;1.55;;;39.80;23.90;;;;;;917169;153;26293;-75
2023/06/15 10:19:25;;;;;;;1.90;1.80;;;39.40;23.90;;;;;;922178;152;26303;-75
2023/06/15 10:21:51;;;;;;;2.33;1.70;;;38.90;24.00;;;;;;906237;155;26290;-75
2023/06/15 10:24:18;;;;;;;2.72;1.90;;;38.60;24.10;;;;;;917163;153;26261;-75
2023/06/15 10:26:45;;;;;;;2.85;1.77;;;38.20;24.30;;;;;;918142;153;27427;-75
2023/06/15 10:29:26;;;;;;;2.00;1.85;;;37.80;24.40;;;;;;919937;153;26438;-75
2023/06/15 10:32:01;;;;;;;3.50;2.08;;;37.50;24.50;;;;;;916265;154;27618;-75
2023/06/15 10:34:34;;;;;;;4.62;2.10;;;37.20;24.80;;;;;;913952;154;27366;-75
2023/06/15 10:37:09;;;;;;;2.50;2.02;;;36.90;25.00;;;;;;890299;155;27405;-75
2023/06/15 10:39:36;;;;;;;2.10;1.85;;;36.60;24.90;;;;;;920488;152;27374;-75
2023/06/15 10:42:08;;;;;;;2.98;1.90;;;36.30;25.00;;;;;;924374;152;27326;-75
2023/06/15 10:44:35;;;;;;;2.60;2.02;;;36.10;25.20;;;;;;919634;154;27386;-75
2023/06/15 10:47:08;;;;;;;3.35;2.00;;;35.70;25.10;;;;;;918688;154;27387;-75
2023/06/15 10:49:34;;;;;;;2.50;1.47;;;35.50;25.30;;;;;;915691;154;27511;-75
2023/06/15 10:52:01;;;;;;;2.22;2.10;;;35.10;25.70;;;;;;916505;154;27359;-75
2023/06/15 10:54:27;;;;;;;3.83;2.17;;;34.90;25.60;;;;;;906741;155;27406;-75
2023/06/15 10:56:55;;;;;;;2.92;1.90;;;34.70;25.80;;;;;;906752;155;27464;-75
2023/06/15 10:59:48;;;;;;;2.00;1.90;;;34.50;25.80;;;;;;924135;152;27388;-75
2023/06/15 11:02:31;;;;;;;2.10;1.90;;;34.30;25.90;;;;;;915445;154;27511;-75
2023/06/15 11:05:02;;;;;;;2.30;2.10;;;34.00;25.90;;;;;;916302;154;27505;-75
2023/06/15 11:07:37;;;;;;;3.22;2.00;;;33.80;25.90;;;;;;922356;152;27447;-75
2023/06/15 11:10:04;;;;;;;2.00;1.87;;;33.50;26.00;;;;;;888954;155;27407;-75
2023/06/15 11:12:35;;;;;;;1.87;1.70;;;33.30;26.00;;;;;;891338;155;27555;-75
2023/06/15 11:15:00;;;;;;;3.22;2.00;;;33.00;26.20;;;;;;912462;154;27388;-75
2023/06/15 11:17:27;;;;;;;3.17;1.98;;;32.90;26.80;;;;;;912134;154;27369;-75
2023/06/15 11:19:53;;;;;;;2.27;2.08;;;32.80;26.80;;;;;;915905;154;27531;-75
2023/06/15 11:22:37;;;;;;;3.10;2.20;;;32.70;26.80;;;;;;914304;154;27907;-75
2023/06/15 11:24:51;;;;;;;3.55;2.08;;;32.60;26.90;;;;;;908991;154;27377;-75
2023/06/15 11:27:18;;;;;;;3.65;2.05;;;32.40;26.80;;;;;;925182;152;27376;-75
2023/06/15 11:29:42;;;;;;;2.05;1.95;;;32.30;26.80;;;;;;913044;154;27425;-74
2023/06/15 11:32:09;;;;;;;2.10;1.90;;;32.10;26.90;;;;;;914225;154;27384;-75
2023/06/15 11:34:36;;;;;;;2.17;1.98;;;32.00;27.00;;;;;;913602;154;27420;-75
2023/06/15 11:37:02;;;;;;;3.98;2.20;;;31.90;27.10;;;;;;915169;154;27296;-75
2023/06/15 11:39:28;;;;;;;2.10;2.00;;;31.80;27.20;;;;;;924322;152;27748;-75
2023/06/15 11:41:56;;;;;;;2.02;1.80;;;31.80;27.30;;;;;;909067;155;27404;-75
2023/06/15 11:44:21;;;;;;;1.95;1.85;;;31.80;27.40;;;;;;910286;154;27397;-75
2023/06/15 11:46:57;;;;;;;1.87;1.72;;;31.80;27.40;;;;;;912063;154;27347;-75
2023/06/15 11:49:24;;;;;;;1.85;1.75;;;31.90;27.60;;;;;;924193;152;27408;-75
2023/06/15 11:51:52;;;;;;;2.00;1.90;;;31.90;27.70;;;;;;908144;155;27377;-75
2023/06/15 11:54:17;;;;;;;2.20;2.00;;;32.00;27.70;;;;;;913868;155;27360;-75
2023/06/15 11:56:46;;;;;;;2.30;1.80;;;32.00;28.00;;;;;;908085;155;27374;-75
2023/06/15 11:59:13;;;;;;;2.52;2.12;;;32.00;27.90;;;;;;925944;152;27352;-75
2023/06/15 12:01:40;;;;;;;2.65;2.02;;;32.10;27.80;;;;;;890814;156;27516;-75
2023/06/15 12:04:06;;;;;;;2.40;2.20;;;32.10;27.80;;;;;;892223;156;27391;-75
2023/06/15 12:06:32;;;;;;;2.42;2.22;;;32.20;27.90;;;;;;906173;155;27447;-75
2023/06/15 12:08:59;;;;;;;2.72;2.22;;;32.20;27.90;;;;;;910202;155;27796;-75
2023/06/15 12:11:26;;;;;;;4.03;2.35;;;32.30;28.10;;;;;;912004;155;27361;-75
2023/06/15 12:13:52;;;;;;;2.52;2.20;;;32.20;28.10;;;;;;914123;153;27409;-75
2023/06/15 12:16:19;;;;;;;3.95;2.20;;;32.30;28.10;;;;;;916783;153;27360;-75
2023/06/15 12:18:45;;;;;;;2.08;1.98;;;32.20;28.00;;;;;;907212;155;27407;-75
2023/06/15 12:21:12;;;;;;;2.40;2.20;;;32.20;28.00;;;;;;914277;154;27422;-75
2023/06/15 12:23:38;;;;;;;3.10;2.20;;;32.20;28.00;;;;;;914466;154;27784;-75
2023/06/15 12:26:06;;;;;;;2.33;1.82;;;32.10;27.80;;;;;;918292;154;27331;-75
2023/06/15 12:28:32;;;;;;;2.90;2.25;;;32.10;27.80;;;;;;917480;151;27379;-75
2023/06/15 12:31:02;;;;;;;2.17;1.80;;;32.00;27.90;;;;;;918564;154;27360;-75
2023/06/15 12:33:29;;;;;;;2.83;2.20;;;32.00;28.00;;;;;;906509;155;27370;-76
2023/06/15 12:35:54;;;;;;;2.47;2.27;;;31.90;28.00;;;;;;907145;155;27339;-75
2023/06/15 12:38:21;;;;;;;2.45;2.33;;;31.90;28.10;;;;;;907906;155;27321;-75
2023/06/15 12:40:48;;;;;;;2.98;2.15;;;31.90;28.00;;;;;;918677;154;27369;-75
2023/06/15 12:43:14;;;;;;;2.92;1.92;;;31.90;28.10;;;;;;917251;154;27415;-75
2023/06/15 12:45:40;;;;;;;2.55;2.33;;;31.80;28.00;;;;;;916493;154;27383;-75
2023/06/15 12:48:07;;;;;;;3.75;2.02;;;31.80;28.20;;;;;;917656;154;27348;-75